createdAt,value
2022-08-19T00:02:00.192Z,19.80
2022-08-19T00:04:31.920Z,19.80
2022-08-19T00:06:59.958Z,19.70
2022-08-19T00:09:27.768Z,19.70
2022-08-19T00:11:57.344Z,19.70
2022-08-19T00:14:25.935Z,19.60
2022-08-19T00:16:55.276Z,19.60
2022-08-19T00:19:23.963Z,19.50
2022-08-19T00:21:51.765Z,19.50
2022-08-19T00:24:18.405Z,19.48
2022-08-19T00:26:46.634Z,19.40
2022-08-19T00:29:18.868Z,19.50
2022-08-19T00:31:47.045Z,19.50
2022-08-19T00:34:16.065Z,19.50
2022-08-19T00:36:44.309Z,19.60
2022-08-19T00:39:13.769Z,19.60
2022-08-19T00:41:41.223Z,19.60
2022-08-19T00:44:14.436Z,19.60
2022-08-19T00:46:51.595Z,19.60
2022-08-19T00:49:37.507Z,19.62
2022-08-19T00:52:23.561Z,19.64
2022-08-19T00:54:52.937Z,19.60
2022-08-19T00:57:28.239Z,19.66
2022-08-19T01:00:02.681Z,19.70
2022-08-19T01:02:32.597Z,19.70
2022-08-19T01:05:03.605Z,19.80
2022-08-19T01:07:35.910Z,19.80
2022-08-19T01:10:09.746Z,19.90
2022-08-19T01:12:37.402Z,19.90
2022-08-19T01:15:07.422Z,20.00
2022-08-19T01:17:37.383Z,20.00
2022-08-19T01:20:05.573Z,20.00
2022-08-19T01:22:40.820Z,19.96
2022-08-19T01:25:14.814Z,19.90
2022-08-19T01:27:47.940Z,19.90
2022-08-19T01:30:25.814Z,19.90
2022-08-19T01:32:54.610Z,19.90
2022-08-19T01:35:24.346Z,19.88
2022-08-19T01:37:57.798Z,19.82
2022-08-19T01:40:30.288Z,19.80
2022-08-19T01:42:56.836Z,19.80
2022-08-19T01:45:27.300Z,19.80
2022-08-19T01:48:02.264Z,19.70
2022-08-19T01:50:31.646Z,19.70
2022-08-19T01:53:05.833Z,19.60
2022-08-19T01:55:40.655Z,19.60
2022-08-19T01:58:15.508Z,19.50
2022-08-19T02:00:43.580Z,19.50
2022-08-19T02:03:11.024Z,19.40
2022-08-19T02:05:38.587Z,19.40
2022-08-19T02:08:06.687Z,19.40
2022-08-19T02:13:21.090Z,19.42
2022-08-19T02:15:53.158Z,19.50
2022-08-19T02:18:19.849Z,19.54
2022-08-19T02:20:48.438Z,19.60
2022-08-19T02:23:17.845Z,19.60
2022-08-19T02:25:48.982Z,19.66
2022-08-19T02:28:18.701Z,19.70
2022-08-19T02:30:47.924Z,19.80
2022-08-19T02:33:14.981Z,19.80
2022-08-19T02:35:48.220Z,19.90
2022-08-19T02:38:27.494Z,20.00
2022-08-19T02:41:00.079Z,20.10
2022-08-19T02:43:29.258Z,20.20
2022-08-19T02:46:01.260Z,20.20
2022-08-19T02:48:27.941Z,20.30
2022-08-19T02:50:57.489Z,20.30
2022-08-19T02:53:28.181Z,20.40
2022-08-19T02:55:55.444Z,20.40
2022-08-19T02:58:24.013Z,20.50
2022-08-19T03:00:56.253Z,20.50
2022-08-19T03:03:22.961Z,20.60
2022-08-19T03:05:56.843Z,20.60
2022-08-19T03:08:25.309Z,20.60
2022-08-19T03:10:53.819Z,20.60
2022-08-19T03:13:20.606Z,20.60
2022-08-19T03:15:49.258Z,20.60
2022-08-19T03:18:18.045Z,20.60
2022-08-19T03:20:53.793Z,20.60
2022-08-19T03:23:20.507Z,20.60
2022-08-19T03:26:02.823Z,20.64
2022-08-19T03:28:38.301Z,20.70
2022-08-19T03:31:41.919Z,20.70
2022-08-19T03:33:58.252Z,20.80
2022-08-19T03:36:28.612Z,20.80
2022-08-19T03:39:00.827Z,20.90
2022-08-19T03:42:29.252Z,20.90
2022-08-19T03:44:38.780Z,20.90
2022-08-19T03:47:06.537Z,20.90
2022-08-19T03:49:36.005Z,21.00
2022-08-19T03:52:08.111Z,21.00
2022-08-19T03:54:36.046Z,21.00
2022-08-19T03:57:03.965Z,21.06
2022-08-19T03:59:34.608Z,21.10
2022-08-19T04:02:06.208Z,21.10
2022-08-19T04:04:32.805Z,21.18
2022-08-19T04:06:59.337Z,21.20
2022-08-19T04:09:26.902Z,21.30
2022-08-19T04:11:57.462Z,21.30
2022-08-19T04:14:31.277Z,21.40
2022-08-19T04:17:00.434Z,21.50
2022-08-19T04:19:30.417Z,21.60
2022-08-19T04:21:56.945Z,21.60
2022-08-19T04:24:24.282Z,21.68
2022-08-19T04:26:52.264Z,21.70
2022-08-19T04:29:26.125Z,21.78
2022-08-19T04:31:55.760Z,21.80
2022-08-19T04:34:25.732Z,21.90
2022-08-19T04:36:54.606Z,21.90
2022-08-19T04:39:50.062Z,22.00
2022-08-19T04:42:38.008Z,22.10
2022-08-19T04:45:12.470Z,22.14
2022-08-19T04:47:47.651Z,22.20
2022-08-19T04:50:27.626Z,22.30
2022-08-19T04:52:56.341Z,22.30
2022-08-19T04:55:23.161Z,22.40
2022-08-19T04:57:49.861Z,22.50
2022-08-19T05:00:16.562Z,22.50
2022-08-19T05:02:43.284Z,22.56
2022-08-19T05:05:10.546Z,22.60
2022-08-19T05:07:37.943Z,22.60
2022-08-19T05:10:06.890Z,22.70
2022-08-19T05:12:33.995Z,22.70
2022-08-19T05:15:01.743Z,22.80
2022-08-19T05:17:32.366Z,22.90
2022-08-19T05:20:20.848Z,22.90
2022-08-19T05:22:48.807Z,23.00
2022-08-19T05:25:20.725Z,23.00
2022-08-19T05:27:48.635Z,23.10
2022-08-19T05:30:17.227Z,23.12
2022-08-19T05:32:44.486Z,23.20
2022-08-19T05:35:12.712Z,23.30
2022-08-19T05:37:41.350Z,23.30
2022-08-19T05:40:10.700Z,23.40
2022-08-19T05:42:38.347Z,23.50
2022-08-19T05:45:05.679Z,23.52
2022-08-19T05:47:33.031Z,23.60
2022-08-19T05:49:59.727Z,23.70
2022-08-19T05:52:29.094Z,23.80
2022-08-19T05:54:57.177Z,23.82
2022-08-19T05:57:25.331Z,23.90
2022-08-19T05:59:58.322Z,24.00
2022-08-19T06:02:27.773Z,24.00
2022-08-19T06:04:54.336Z,24.10
2022-08-19T06:07:20.896Z,24.20
2022-08-19T06:10:00.135Z,24.20
2022-08-19T06:12:34.048Z,24.30
2022-08-19T06:15:12.417Z,24.40
2022-08-19T06:17:39.189Z,24.50
2022-08-19T06:20:14.297Z,24.50
2022-08-19T06:22:44.875Z,24.60
2022-08-19T06:25:14.784Z,24.60
2022-08-19T06:28:11.465Z,24.70
2022-08-19T06:30:29.550Z,24.80
2022-08-19T06:32:56.081Z,24.82
2022-08-19T06:35:22.800Z,24.90
2022-08-19T06:37:49.449Z,25.00
2022-08-19T06:40:16.096Z,25.10
2022-08-19T06:42:44.410Z,25.20
2022-08-19T06:45:21.521Z,25.30
2022-08-19T06:47:56.769Z,25.40
2022-08-19T06:50:26.488Z,25.50
2022-08-19T06:52:53.611Z,25.64
2022-08-19T06:55:20.715Z,25.80
2022-08-19T06:57:47.441Z,25.90
2022-08-19T07:00:14.986Z,26.00
2022-08-19T07:02:49.827Z,26.10
2022-08-19T07:05:24.126Z,26.20
2022-08-19T07:07:51.184Z,26.30
2022-08-19T07:10:18.641Z,26.40
2022-08-19T07:12:45.397Z,26.50
2022-08-19T07:15:13.149Z,26.56
2022-08-19T07:17:40.375Z,26.60
2022-08-19T07:20:10.544Z,26.66
2022-08-19T07:22:41.305Z,26.70
2022-08-19T07:25:09.921Z,26.70
2022-08-19T07:27:38.004Z,26.70
2022-08-19T07:30:11.655Z,26.70
2022-08-19T07:32:39.171Z,26.80
2022-08-19T07:35:07.101Z,26.80
2022-08-19T07:37:33.732Z,26.84
2022-08-19T07:40:02.519Z,26.90
2022-08-19T07:42:30.771Z,26.90
2022-08-19T07:44:57.878Z,27.00
2022-08-19T07:47:50.090Z,27.00
2022-08-19T07:50:12.623Z,27.10
2022-08-19T07:52:40.742Z,27.20
2022-08-19T07:55:13.607Z,27.22
2022-08-19T07:57:58.259Z,27.30
2022-08-19T08:00:25.285Z,27.40
2022-08-19T08:02:55.544Z,27.42
2022-08-19T08:05:44.237Z,27.50
2022-08-19T08:08:32.180Z,27.54
2022-08-19T08:10:59.663Z,27.60
2022-08-19T08:13:27.990Z,27.70
2022-08-19T08:15:54.727Z,27.76
2022-08-19T08:18:22.734Z,27.80
2022-08-19T08:20:54.890Z,27.80
2022-08-19T08:23:26.069Z,27.86
2022-08-19T08:25:56.190Z,27.90
2022-08-19T08:28:24.113Z,28.00
2022-08-19T08:30:52.020Z,28.00
2022-08-19T08:33:33.259Z,28.10
2022-08-19T08:36:07.254Z,28.20
2022-08-19T08:38:39.735Z,28.30
2022-08-19T08:41:45.991Z,28.32
2022-08-19T08:44:22.031Z,28.50
2022-08-19T08:46:56.694Z,28.52
2022-08-19T08:49:29.539Z,28.60
2022-08-19T08:52:04.341Z,28.70
2022-08-19T08:54:41.514Z,28.80
2022-08-19T08:57:44.395Z,28.90
2022-08-19T09:00:27.552Z,29.00
2022-08-19T09:02:55.910Z,29.00
2022-08-19T09:05:28.527Z,29.00
2022-08-19T09:08:37.611Z,29.10
2022-08-19T09:11:11.564Z,29.20
2022-08-19T09:13:56.616Z,29.30
2022-08-19T09:16:28.029Z,29.40
2022-08-19T09:19:04.606Z,29.50
2022-08-19T09:21:34.246Z,29.54
2022-08-19T09:24:03.318Z,29.60
2022-08-19T09:26:48.631Z,29.70
2022-08-19T09:29:22.531Z,29.76
2022-08-19T09:31:50.828Z,29.80
2022-08-19T09:34:21.730Z,29.90
2022-08-19T09:36:53.952Z,29.90
2022-08-19T09:39:21.767Z,30.00
2022-08-19T09:41:49.162Z,30.08
2022-08-19T09:44:16.973Z,30.00
2022-08-19T09:46:44.800Z,30.10
2022-08-19T09:49:11.385Z,30.12
2022-08-19T09:51:39.961Z,30.20
2022-08-19T09:54:07.650Z,30.28
2022-08-19T09:56:38.045Z,30.30
2022-08-19T09:59:05.122Z,30.30
2022-08-19T10:01:33.422Z,30.34
2022-08-19T10:04:07.590Z,30.40
2022-08-19T10:06:46.518Z,30.50
2022-08-19T10:09:15.722Z,30.60
2022-08-19T10:11:54.636Z,30.70
2022-08-19T10:14:24.567Z,30.80
2022-08-19T10:16:52.804Z,30.90
2022-08-19T10:19:25.725Z,31.00
2022-08-19T10:21:54.418Z,31.08
2022-08-19T10:24:25.288Z,31.18
2022-08-19T10:26:55.802Z,31.20
2022-08-19T10:29:31.796Z,31.30
2022-08-19T10:32:03.132Z,31.30
2022-08-19T10:34:32.055Z,31.40
2022-08-19T10:37:01.971Z,31.50
2022-08-19T10:39:31.164Z,31.52
2022-08-19T10:41:58.543Z,31.60
2022-08-19T10:44:32.051Z,31.60
2022-08-19T10:47:00.002Z,31.68
2022-08-19T10:49:28.084Z,31.70
2022-08-19T10:52:19.081Z,31.80
2022-08-19T10:55:08.614Z,31.90
2022-08-19T10:57:59.370Z,32.00
2022-08-19T11:00:24.214Z,32.06
2022-08-19T11:02:51.692Z,32.10
2022-08-19T11:05:19.229Z,32.20
2022-08-19T11:07:46.404Z,32.30
2022-08-19T11:10:20.918Z,32.30
2022-08-19T11:12:48.564Z,32.40
2022-08-19T11:15:15.535Z,32.40
2022-08-19T11:17:44.152Z,32.42
2022-08-19T11:20:14.093Z,32.50
2022-08-19T11:22:42.123Z,32.60
2022-08-19T11:25:12.074Z,32.70
2022-08-19T11:27:44.007Z,32.80
2022-08-19T11:30:13.867Z,32.80
2022-08-19T11:32:49.055Z,32.80
2022-08-19T11:35:17.479Z,32.90
2022-08-19T11:37:44.101Z,32.90
2022-08-19T11:40:11.725Z,33.00
2022-08-19T11:42:57.499Z,33.04
2022-08-19T11:45:30.181Z,33.10
2022-08-19T11:47:57.117Z,33.10
2022-08-19T11:50:25.350Z,33.20
2022-08-19T11:52:57.035Z,33.20
2022-08-19T11:55:24.538Z,33.30
2022-08-19T11:57:51.097Z,33.38
2022-08-19T12:00:17.712Z,33.42
2022-08-19T12:02:44.547Z,33.50
2022-08-19T12:05:12.985Z,33.60
2022-08-19T12:07:41.756Z,33.60
2022-08-19T12:10:09.149Z,33.70
2022-08-19T12:12:43.630Z,33.70
2022-08-19T12:15:11.899Z,33.74
2022-08-19T12:17:39.425Z,33.80
2022-08-19T12:20:07.980Z,33.80
2022-08-19T12:22:35.909Z,33.90
2022-08-19T12:25:02.508Z,34.00
2022-08-19T12:27:35.710Z,34.00
2022-08-19T12:30:11.380Z,34.00
2022-08-19T12:32:38.401Z,34.00
2022-08-19T12:35:06.855Z,34.10
2022-08-19T12:37:33.673Z,34.20
2022-08-19T12:40:01.062Z,34.30
2022-08-19T12:42:27.927Z,34.30
2022-08-19T12:44:54.556Z,34.30
2022-08-19T12:47:21.997Z,34.30
2022-08-19T12:49:53.407Z,34.40
2022-08-19T12:52:23.487Z,34.40
2022-08-19T12:54:54.318Z,34.40
2022-08-19T12:57:31.732Z,34.40
2022-08-19T13:00:13.111Z,34.50
2022-08-19T13:02:44.829Z,34.58
2022-08-19T13:05:17.514Z,34.60
2022-08-19T13:07:44.947Z,34.64
2022-08-19T13:10:16.577Z,34.70
2022-08-19T13:12:45.528Z,34.80
2022-08-19T13:15:13.189Z,34.90
2022-08-19T13:17:42.501Z,35.00
2022-08-19T13:20:11.358Z,35.00
2022-08-19T13:22:38.752Z,35.00
2022-08-19T13:25:07.292Z,34.90
2022-08-19T13:27:34.300Z,35.00
2022-08-19T13:30:20.419Z,35.00
2022-08-19T13:33:05.930Z,35.00
2022-08-19T13:35:32.511Z,34.90
2022-08-19T13:37:59.137Z,34.80
2022-08-19T13:40:27.878Z,34.80
2022-08-19T13:42:56.036Z,34.68
2022-08-19T13:45:25.975Z,34.60
2022-08-19T13:47:59.247Z,34.68
2022-08-19T13:50:34.393Z,34.70
2022-08-19T13:53:03.388Z,34.80
2022-08-19T13:55:29.971Z,34.92
2022-08-19T13:58:00.197Z,35.10
2022-08-19T14:00:31.417Z,35.10
2022-08-19T14:02:58.740Z,35.20
2022-08-19T14:05:29.315Z,35.16
2022-08-19T14:07:57.233Z,35.10
2022-08-19T14:10:25.436Z,35.10
2022-08-19T14:13:02.967Z,35.20
2022-08-19T14:15:30.627Z,35.30
2022-08-19T14:17:58.022Z,35.50
2022-08-19T14:20:26.055Z,35.60
2022-08-19T14:22:54.235Z,35.60
2022-08-19T14:25:27.776Z,35.62
2022-08-19T14:27:55.179Z,35.70
2022-08-19T14:30:34.646Z,35.80
2022-08-19T14:33:03.227Z,35.82
2022-08-19T14:35:35.531Z,35.90
2022-08-19T14:38:05.415Z,36.00
2022-08-19T14:40:32.859Z,36.04
2022-08-19T14:43:05.583Z,36.10
2022-08-19T14:45:36.894Z,36.16
2022-08-19T14:48:06.746Z,36.28
2022-08-19T14:50:34.748Z,36.30
2022-08-19T14:53:12.288Z,36.40
2022-08-19T14:55:43.990Z,36.40
2022-08-19T14:58:29.217Z,36.40
2022-08-19T15:00:57.448Z,36.50
2022-08-19T15:03:24.077Z,36.50
2022-08-19T15:05:50.621Z,36.52
2022-08-19T15:08:17.203Z,36.50
2022-08-19T15:10:43.680Z,36.46
2022-08-19T15:13:10.491Z,36.42
2022-08-19T15:15:37.081Z,36.50
2022-08-19T15:18:04.808Z,36.50
2022-08-19T15:20:31.999Z,36.50
2022-08-19T15:22:59.981Z,36.50
2022-08-19T15:25:28.134Z,36.50
2022-08-19T15:27:54.889Z,36.40
2022-08-19T15:30:27.964Z,36.30
2022-08-19T15:32:58.485Z,36.28
2022-08-19T15:35:27.040Z,36.20
2022-08-19T15:37:54.904Z,36.20
2022-08-19T15:40:25.290Z,36.20
2022-08-19T15:42:53.147Z,36.10
2022-08-19T15:45:22.340Z,36.00
2022-08-19T15:47:49.056Z,35.90
2022-08-19T15:50:23.726Z,35.78
2022-08-19T15:53:01.262Z,35.60
2022-08-19T15:55:34.643Z,35.50
2022-08-19T15:58:28.856Z,35.50
2022-08-19T16:01:21.345Z,35.50
2022-08-19T16:04:14.279Z,35.40
2022-08-19T16:06:58.970Z,35.40
2022-08-19T16:09:29.472Z,35.30
2022-08-19T16:12:01.870Z,35.18
2022-08-19T16:14:31.624Z,34.90
2022-08-19T16:16:58.252Z,34.60
2022-08-19T16:19:25.798Z,34.40
2022-08-19T16:21:56.756Z,34.20
2022-08-19T16:24:27.822Z,34.00
2022-08-19T16:26:56.332Z,33.80
2022-08-19T16:29:34.295Z,33.70
2022-08-19T16:32:10.390Z,33.50
2022-08-19T16:34:40.653Z,33.30
2022-08-19T16:37:08.064Z,33.10
2022-08-19T16:39:34.684Z,32.90
2022-08-19T16:42:02.074Z,32.74
2022-08-19T16:44:29.789Z,32.60
2022-08-19T16:46:59.685Z,32.48
2022-08-19T16:49:53.817Z,32.32
2022-08-19T16:52:19.442Z,32.20
2022-08-19T16:54:47.008Z,32.10
2022-08-19T16:57:13.710Z,32.00
2022-08-19T16:59:44.155Z,31.88
2022-08-19T17:02:17.925Z,31.70
2022-08-19T17:04:44.465Z,31.60
2022-08-19T17:07:23.749Z,31.50
2022-08-19T17:09:50.785Z,31.38
2022-08-19T17:12:17.290Z,31.24
2022-08-19T17:14:45.752Z,31.12
2022-08-19T17:17:12.877Z,31.00
2022-08-19T17:19:44.515Z,30.90
2022-08-19T17:22:12.952Z,30.80
2022-08-19T17:24:40.527Z,30.70
2022-08-19T17:27:07.910Z,30.52
2022-08-19T17:29:35.296Z,30.40
2022-08-19T17:32:03.066Z,30.30
2022-08-19T17:34:29.636Z,30.18
2022-08-19T17:36:57.024Z,30.00
2022-08-19T17:39:23.864Z,29.90
2022-08-19T17:41:50.409Z,29.80
2022-08-19T17:44:18.916Z,29.70
2022-08-19T17:46:46.778Z,29.56
2022-08-19T17:49:14.228Z,29.42
2022-08-19T17:51:47.281Z,29.30
2022-08-19T17:54:18.675Z,29.20
2022-08-19T17:56:46.444Z,29.00
2022-08-19T17:59:14.516Z,28.90
2022-08-19T18:01:53.310Z,28.80
2022-08-19T18:04:25.408Z,28.70
2022-08-19T18:06:55.050Z,28.58
2022-08-19T18:09:30.151Z,28.50
2022-08-19T18:12:14.159Z,28.40
2022-08-19T18:14:41.464Z,28.30
2022-08-19T18:17:12.498Z,28.30
2022-08-19T18:19:43.590Z,28.20
2022-08-19T18:22:22.552Z,28.14
2022-08-19T18:24:49.516Z,28.10
2022-08-19T18:27:16.069Z,28.00
2022-08-19T18:29:43.318Z,27.92
2022-08-19T18:32:13.294Z,27.90
2022-08-19T18:34:42.353Z,27.80
2022-08-19T18:37:09.602Z,27.70
2022-08-19T18:39:55.098Z,27.70
2022-08-19T18:42:40.164Z,27.60
2022-08-19T18:45:26.452Z,27.50
2022-08-19T18:48:26.593Z,27.40
2022-08-19T18:50:58.108Z,27.40
2022-08-19T18:53:27.915Z,27.30
2022-08-19T18:55:55.243Z,27.20
2022-08-19T18:58:32.322Z,27.14
2022-08-19T19:01:10.966Z,27.10
2022-08-19T19:03:45.476Z,27.02
2022-08-19T19:06:27.572Z,26.90
2022-08-19T19:08:55.147Z,26.84
2022-08-19T19:11:27.529Z,26.80
2022-08-19T19:13:54.647Z,26.76
2022-08-19T19:16:24.437Z,26.70
2022-08-19T19:18:52.811Z,26.70
2022-08-19T19:21:23.109Z,26.68
2022-08-19T19:23:51.247Z,26.60
2022-08-19T19:26:18.370Z,26.60
2022-08-19T19:28:45.914Z,26.58
2022-08-19T19:31:20.600Z,26.50
2022-08-19T19:33:47.272Z,26.50
2022-08-19T19:36:14.322Z,26.50
2022-08-19T19:38:48.290Z,26.40
2022-08-19T19:41:24.602Z,26.40
2022-08-19T19:44:16.371Z,26.40
2022-08-19T19:46:45.227Z,26.30
2022-08-19T19:49:12.902Z,26.20
2022-08-19T19:51:41.253Z,26.20
2022-08-19T19:54:14.318Z,26.20
2022-08-19T19:56:46.120Z,26.20
2022-08-19T19:59:13.254Z,26.10
2022-08-19T20:01:40.790Z,26.08
2022-08-19T20:04:10.881Z,26.00
2022-08-19T20:06:37.402Z,26.00
2022-08-19T20:09:17.545Z,25.90
2022-08-19T20:11:53.624Z,25.90
2022-08-19T20:14:26.582Z,25.90
2022-08-19T20:16:55.723Z,25.90
2022-08-19T20:19:27.172Z,25.98
2022-08-19T20:21:55.851Z,26.00
2022-08-19T20:24:29.891Z,26.00
2022-08-19T20:26:56.396Z,26.00
2022-08-19T20:29:38.312Z,26.00
2022-08-19T20:32:06.229Z,26.00
2022-08-19T20:34:33.825Z,26.00
2022-08-19T20:37:00.397Z,26.00
2022-08-19T20:39:26.943Z,26.00
2022-08-19T20:41:53.453Z,26.00
2022-08-19T20:44:20.071Z,26.00
2022-08-19T20:46:55.255Z,25.80
2022-08-19T20:49:27.498Z,25.34
2022-08-19T20:51:56.120Z,24.98
2022-08-19T20:54:22.724Z,24.32
2022-08-19T20:56:49.246Z,23.72
2022-08-19T20:59:15.749Z,23.32
2022-08-19T21:01:42.375Z,23.18
2022-08-19T21:04:08.874Z,23.04
2022-08-19T21:06:35.556Z,22.90
2022-08-19T21:09:02.058Z,22.80
2022-08-19T21:11:29.391Z,22.70
2022-08-19T21:13:57.033Z,22.70
2022-08-19T21:16:23.571Z,22.70
2022-08-19T21:18:50.260Z,22.60
2022-08-19T21:21:17.014Z,22.50
2022-08-19T21:23:44.143Z,22.40
2022-08-19T21:26:11.554Z,22.30
2022-08-19T21:28:38.043Z,22.20
2022-08-19T21:31:07.459Z,22.10
2022-08-19T21:33:34.443Z,22.10
2022-08-19T21:36:01.048Z,22.10
2022-08-19T21:38:27.651Z,22.00
2022-08-19T21:40:55.410Z,22.00
2022-08-19T21:43:23.287Z,22.00
2022-08-19T21:45:51.026Z,22.00
2022-08-19T21:48:18.384Z,22.00
2022-08-19T21:50:48.345Z,22.00
2022-08-19T21:53:19.332Z,22.00
2022-08-19T21:55:53.417Z,22.00
2022-08-19T21:58:28.247Z,22.00
2022-08-19T22:01:00.262Z,22.00
2022-08-19T22:03:27.362Z,22.00
2022-08-19T22:05:53.972Z,22.00
2022-08-19T22:08:20.675Z,22.00
2022-08-19T22:10:49.030Z,22.04
2022-08-19T22:13:17.470Z,22.10
2022-08-19T22:15:45.690Z,22.10
2022-08-19T22:18:13.628Z,22.00
2022-08-19T22:20:40.256Z,22.00
2022-08-19T22:23:07.934Z,22.00
2022-08-19T22:25:45.952Z,22.10
2022-08-19T22:28:18.876Z,22.10
2022-08-19T22:30:54.038Z,22.14
2022-08-19T22:33:22.680Z,22.14
2022-08-19T22:35:52.591Z,22.10
2022-08-19T22:38:19.406Z,22.20
2022-08-19T22:40:48.863Z,22.20
2022-08-19T22:43:24.263Z,22.24
2022-08-19T22:45:54.551Z,22.20
2022-08-19T22:48:28.165Z,22.20
2022-08-19T22:51:15.317Z,22.20
2022-08-19T22:53:46.909Z,22.20
2022-08-19T22:56:18.385Z,22.20
2022-08-19T22:58:47.188Z,22.20
2022-08-19T23:01:27.203Z,22.18
2022-08-19T23:03:58.935Z,22.20
2022-08-19T23:06:34.010Z,22.20
2022-08-19T23:09:07.291Z,22.20
2022-08-19T23:11:39.872Z,22.22
2022-08-19T23:14:09.556Z,22.28
2022-08-19T23:16:36.084Z,22.28
2022-08-19T23:19:03.493Z,22.20
2022-08-19T23:21:30.540Z,22.20
2022-08-19T23:23:57.273Z,22.20
2022-08-19T23:26:23.882Z,22.20
2022-08-19T23:29:09.252Z,22.20
2022-08-19T23:31:36.300Z,22.18
2022-08-19T23:34:03.605Z,22.18
2022-08-19T23:36:30.241Z,22.12
2022-08-19T23:38:57.945Z,22.10
2022-08-19T23:41:27.109Z,22.10
2022-08-19T23:43:55.073Z,22.10
2022-08-19T23:46:28.274Z,22.10
2022-08-19T23:48:56.190Z,22.10
2022-08-19T23:51:23.049Z,22.10
2022-08-19T23:53:49.717Z,22.10
2022-08-19T23:56:16.304Z,22.10
2022-08-19T23:58:42.891Z,22.10
